sensor_id;sensor_type;location;lat;lon;timestamp;P1;durP1;ratioP1;P2;durP2;ratioP2
9938;SDS011;5008;50.656;7.188;2023-12-20T05:01:44;5.77;;;1.90;;
9938;SDS011;5008;50.656;7.188;2023-12-20T05:04:11;6.23;;;2.30;;
9938;SDS011;5008;50.656;7.188;2023-12-20T05:06:38;4.57;;;1.90;;
9938;SDS011;5008;50.656;7.188;2023-12-20T05:09:04;5.57;;;2.40;;
9938;SDS011;5008;50.656;7.188;2023-12-20T05:11:31;4.97;;;2.50;;
9938;SDS011;5008;50.656;7.188;2023-12-20T05:13:58;3.27;;;2.13;;
9938;SDS011;5008;50.656;7.188;2023-12-20T05:16:25;5.00;;;2.10;;
9938;SDS011;5008;50.656;7.188;2023-12-20T05:18:53;5.80;;;2.13;;
9938;SDS011;5008;50.656;7.188;2023-12-20T05:21:19;8.67;;;3.00;;
9938;SDS011;5008;50.656;7.188;2023-12-20T05:23:47;4.67;;;2.27;;
9938;SDS011;5008;50.656;7.188;2023-12-20T05:26:14;8.20;;;3.03;;
9938;SDS011;5008;50.656;7.188;2023-12-20T05:28:41;6.37;;;2.33;;
9938;SDS011;5008;50.656;7.188;2023-12-20T05:31:07;7.40;;;2.80;;
9938;SDS011;5008;50.656;7.188;2023-12-20T05:33:34;7.00;;;2.43;;
9938;SDS011;5008;50.656;7.188;2023-12-20T05:36:03;9.57;;;2.90;;
9938;SDS011;5008;50.656;7.188;2023-12-20T05:38:30;7.03;;;2.40;;
9938;SDS011;5008;50.656;7.188;2023-12-20T05:40:57;5.77;;;2.40;;
9938;SDS011;5008;50.656;7.188;2023-12-20T05:43:23;6.57;;;2.40;;
9938;SDS011;5008;50.656;7.188;2023-12-20T05:45:50;6.70;;;2.63;;
9938;SDS011;5008;50.656;7.188;2023-12-20T05:48:17;4.03;;;2.47;;
9938;SDS011;5008;50.656;7.188;2023-12-20T05:50:43;6.77;;;2.80;;
9938;SDS011;5008;50.656;7.188;2023-12-20T05:53:12;6.10;;;2.80;;
9938;SDS011;5008;50.656;7.188;2023-12-20T05:55:45;4.50;;;2.70;;
9938;SDS011;5008;50.656;7.188;2023-12-20T05:58:12;7.80;;;3.30;;
9938;SDS011;5008;50.656;7.188;2023-12-20T06:00:39;8.73;;;3.33;;
9938;SDS011;5008;50.656;7.188;2023-12-20T06:03:05;8.17;;;2.87;;
9938;SDS011;5008;50.656;7.188;2023-12-20T06:05:32;8.43;;;2.80;;
9938;SDS011;5008;50.656;7.188;2023-12-20T06:07:59;8.97;;;2.93;;
9938;SDS011;5008;50.656;7.188;2023-12-20T06:10:29;4.33;;;2.90;;
9938;SDS011;5008;50.656;7.188;2023-12-20T06:12:56;5.93;;;2.63;;
9938;SDS011;5008;50.656;7.188;2023-12-20T06:15:24;6.83;;;3.07;;
9938;SDS011;5008;50.656;7.188;2023-12-20T06:17:50;6.67;;;2.80;;
9938;SDS011;5008;50.656;7.188;2023-12-20T06:20:17;4.60;;;2.43;;
9938;SDS011;5008;50.656;7.188;2023-12-20T06:22:44;4.07;;;2.37;;
9938;SDS011;5008;50.656;7.188;2023-12-20T06:25:10;6.30;;;2.17;;
9938;SDS011;5008;50.656;7.188;2023-12-20T06:27:39;6.83;;;2.30;;
9938;SDS011;5008;50.656;7.188;2023-12-20T06:30:07;6.00;;;2.60;;
9938;SDS011;5008;50.656;7.188;2023-12-20T06:32:35;5.17;;;2.50;;
9938;SDS011;5008;50.656;7.188;2023-12-20T06:35:03;5.23;;;2.33;;
9938;SDS011;5008;50.656;7.188;2023-12-20T06:37:31;7.20;;;2.40;;
9938;SDS011;5008;50.656;7.188;2023-12-20T06:39:57;8.60;;;2.70;;
9938;SDS011;5008;50.656;7.188;2023-12-20T06:42:29;5.90;;;2.27;;
9938;SDS011;5008;50.656;7.188;2023-12-20T06:44:57;7.23;;;2.37;;
9938;SDS011;5008;50.656;7.188;2023-12-20T06:47:24;6.63;;;2.33;;
9938;SDS011;5008;50.656;7.188;2023-12-20T06:49:51;4.30;;;2.53;;
9938;SDS011;5008;50.656;7.188;2023-12-20T06:52:18;5.50;;;2.30;;
9938;SDS011;5008;50.656;7.188;2023-12-20T06:54:45;7.77;;;2.63;;
9938;SDS011;5008;50.656;7.188;2023-12-20T06:57:11;9.23;;;2.47;;
9938;SDS011;5008;50.656;7.188;2023-12-20T06:59:38;6.23;;;2.67;;
9938;SDS011;5008;50.656;7.188;2023-12-20T07:02:07;7.07;;;2.60;;
9938;SDS011;5008;50.656;7.188;2023-12-20T07:04:38;5.63;;;2.80;;
9938;SDS011;5008;50.656;7.188;2023-12-20T07:07:05;7.30;;;2.43;;
9938;SDS011;5008;50.656;7.188;2023-12-20T07:09:32;4.63;;;2.20;;
9938;SDS011;5008;50.656;7.188;2023-12-20T07:11:59;5.63;;;2.47;;
9938;SDS011;5008;50.656;7.188;2023-12-20T07:14:26;10.30;;;2.93;;
9938;SDS011;5008;50.656;7.188;2023-12-20T07:16:55;6.53;;;2.47;;
9938;SDS011;5008;50.656;7.188;2023-12-20T07:19:23;7.27;;;2.50;;
9938;SDS011;5008;50.656;7.188;2023-12-20T07:21:50;7.80;;;2.60;;
9938;SDS011;5008;50.656;7.188;2023-12-20T07:24:17;8.13;;;2.67;;
9938;SDS011;5008;50.656;7.188;2023-12-20T07:26:43;5.53;;;2.37;;
9938;SDS011;5008;50.656;7.188;2023-12-20T07:29:10;6.30;;;3.50;;
9938;SDS011;5008;50.656;7.188;2023-12-20T07:31:37;11.13;;;3.20;;
9938;SDS011;5008;50.656;7.188;2023-12-20T07:34:04;7.43;;;3.03;;
9938;SDS011;5008;50.656;7.188;2023-12-20T07:36:36;7.73;;;2.70;;
9938;SDS011;5008;50.656;7.188;2023-12-20T07:41:35;8.47;;;2.70;;
9938;SDS011;5008;50.656;7.188;2023-12-20T07:44:02;9.77;;;3.03;;
9938;SDS011;5008;50.656;7.188;2023-12-20T07:46:30;8.90;;;3.30;;
9938;SDS011;5008;50.656;7.188;2023-12-20T07:48:56;7.63;;;3.13;;
9938;SDS011;5008;50.656;7.188;2023-12-20T07:51:23;8.00;;;2.90;;
9938;SDS011;5008;50.656;7.188;2023-12-20T07:53:52;5.40;;;2.80;;
9938;SDS011;5008;50.656;7.188;2023-12-20T07:56:19;5.27;;;2.60;;
9938;SDS011;5008;50.656;7.188;2023-12-20T07:58:46;8.77;;;2.60;;
9938;SDS011;5008;50.656;7.188;2023-12-20T08:01:15;7.73;;;2.47;;
9938;SDS011;5008;50.656;7.188;2023-12-20T08:03:42;4.10;;;2.37;;
9938;SDS011;5008;50.656;7.188;2023-12-20T08:06:09;8.10;;;2.50;;
9938;SDS011;5008;50.656;7.188;2023-12-20T08:08:36;7.77;;;3.20;;
9938;SDS011;5008;50.656;7.188;2023-12-20T08:11:04;8.97;;;3.30;;
9938;SDS011;5008;50.656;7.188;2023-12-20T08:13:31;9.70;;;3.07;;
9938;SDS011;5008;50.656;7.188;2023-12-20T08:15:57;6.93;;;2.50;;
9938;SDS011;5008;50.656;7.188;2023-12-20T08:18:24;7.43;;;3.00;;
9938;SDS011;5008;50.656;7.188;2023-12-20T08:20:51;6.80;;;2.53;;
9938;SDS011;5008;50.656;7.188;2023-12-20T08:23:19;8.10;;;2.70;;
9938;SDS011;5008;50.656;7.188;2023-12-20T08:25:53;7.00;;;2.97;;
9938;SDS011;5008;50.656;7.188;2023-12-20T08:28:21;5.67;;;2.53;;
9938;SDS011;5008;50.656;7.188;2023-12-20T08:30:48;6.40;;;2.73;;
9938;SDS011;5008;50.656;7.188;2023-12-20T08:33:18;4.50;;;2.50;;
9938;SDS011;5008;50.656;7.188;2023-12-20T08:35:45;7.13;;;2.63;;
9938;SDS011;5008;50.656;7.188;2023-12-20T08:38:12;5.13;;;3.00;;
9938;SDS011;5008;50.656;7.188;2023-12-20T08:40:39;5.43;;;2.77;;
9938;SDS011;5008;50.656;7.188;2023-12-20T08:43:06;7.77;;;2.67;;
9938;SDS011;5008;50.656;7.188;2023-12-20T08:45:34;7.40;;;2.50;;
9938;SDS011;5008;50.656;7.188;2023-12-20T08:48:01;7.33;;;2.47;;
9938;SDS011;5008;50.656;7.188;2023-12-20T08:50:28;6.77;;;2.77;;
9938;SDS011;5008;50.656;7.188;2023-12-20T08:52:55;7.83;;;2.67;;
9938;SDS011;5008;50.656;7.188;2023-12-20T08:55:22;4.90;;;1.90;;
9938;SDS011;5008;50.656;7.188;2023-12-20T08:57:49;6.50;;;2.60;;
9938;SDS011;5008;50.656;7.188;2023-12-20T09:00:16;8.80;;;2.40;;
9938;SDS011;5008;50.656;7.188;2023-12-20T09:02:46;7.80;;;2.57;;
9938;SDS011;5008;50.656;7.188;2023-12-20T09:05:13;6.87;;;2.67;;
9938;SDS011;5008;50.656;7.188;2023-12-20T09:07:40;7.63;;;2.50;;
9938;SDS011;5008;50.656;7.188;2023-12-20T09:10:07;3.90;;;2.30;;
9938;SDS011;5008;50.656;7.188;2023-12-20T09:12:40;9.13;;;2.63;;
9938;SDS011;5008;50.656;7.188;2023-12-20T09:15:07;6.13;;;2.33;;
9938;SDS011;5008;50.656;7.188;2023-12-20T09:17:34;6.77;;;2.77;;
9938;SDS011;5008;50.656;7.188;2023-12-20T09:20:03;4.27;;;1.87;;
9938;SDS011;5008;50.656;7.188;2023-12-20T09:22:31;7.33;;;1.97;;
9938;SDS011;5008;50.656;7.188;2023-12-20T09:24:58;3.40;;;2.23;;
9938;SDS011;5008;50.656;7.188;2023-12-20T09:27:32;7.07;;;2.23;;
9938;SDS011;5008;50.656;7.188;2023-12-20T09:29:59;3.93;;;2.03;;
9938;SDS011;5008;50.656;7.188;2023-12-20T09:32:25;4.70;;;2.10;;
9938;SDS011;5008;50.656;7.188;2023-12-20T09:34:52;4.17;;;2.20;;
9938;SDS011;5008;50.656;7.188;2023-12-20T09:37:20;5.00;;;1.93;;
9938;SDS011;5008;50.656;7.188;2023-12-20T09:39:53;3.17;;;1.77;;
9938;SDS011;5008;50.656;7.188;2023-12-20T09:42:21;3.83;;;2.03;;
9938;SDS011;5008;50.656;7.188;2023-12-20T09:44:52;4.17;;;1.73;;
9938;SDS011;5008;50.656;7.188;2023-12-20T09:47:19;5.33;;;2.17;;
9938;SDS011;5008;50.656;7.188;2023-12-20T09:49:49;7.93;;;2.10;;
9938;SDS011;5008;50.656;7.188;2023-12-20T09:52:16;6.27;;;1.80;;
9938;SDS011;5008;50.656;7.188;2023-12-20T09:54:46;7.83;;;2.17;;
9938;SDS011;5008;50.656;7.188;2023-12-20T09:57:15;4.70;;;1.87;;
9938;SDS011;5008;50.656;7.188;2023-12-20T09:59:42;3.97;;;1.60;;
9938;SDS011;5008;50.656;7.188;2023-12-20T10:02:11;5.10;;;2.20;;
9938;SDS011;5008;50.656;7.188;2023-12-20T10:04:40;4.80;;;2.17;;
9938;SDS011;5008;50.656;7.188;2023-12-20T10:07:12;4.97;;;2.23;;
9938;SDS011;5008;50.656;7.188;2023-12-20T10:09:39;5.33;;;2.10;;
9938;SDS011;5008;50.656;7.188;2023-12-20T10:12:09;4.40;;;2.00;;
9938;SDS011;5008;50.656;7.188;2023-12-20T10:14:36;8.37;;;2.30;;
9938;SDS011;5008;50.656;7.188;2023-12-20T10:17:05;6.93;;;2.27;;
9938;SDS011;5008;50.656;7.188;2023-12-20T10:19:32;6.57;;;2.17;;
9938;SDS011;5008;50.656;7.188;2023-12-20T10:21:59;4.97;;;2.03;;
9938;SDS011;5008;50.656;7.188;2023-12-20T10:24:28;3.97;;;2.07;;
9938;SDS011;5008;50.656;7.188;2023-12-20T10:27:01;5.47;;;2.17;;
9938;SDS011;5008;50.656;7.188;2023-12-20T10:29:32;4.10;;;1.83;;
9938;SDS011;5008;50.656;7.188;2023-12-20T10:32:00;4.60;;;2.37;;
9938;SDS011;5008;50.656;7.188;2023-12-20T10:34:47;6.20;;;2.20;;
9938;SDS011;5008;50.656;7.188;2023-12-20T10:37:13;4.40;;;2.00;;
9938;SDS011;5008;50.656;7.188;2023-12-20T10:39:49;6.90;;;2.40;;
9938;SDS011;5008;50.656;7.188;2023-12-20T10:42:18;3.87;;;2.10;;
9938;SDS011;5008;50.656;7.188;2023-12-20T10:44:48;5.43;;;2.10;;
9938;SDS011;5008;50.656;7.188;2023-12-20T10:47:15;5.50;;;2.50;;
9938;SDS011;5008;50.656;7.188;2023-12-20T10:49:43;4.90;;;2.27;;
9938;SDS011;5008;50.656;7.188;2023-12-20T10:52:11;5.93;;;2.30;;
9938;SDS011;5008;50.656;7.188;2023-12-20T10:54:38;4.27;;;2.00;;
9938;SDS011;5008;50.656;7.188;2023-12-20T10:57:08;3.87;;;1.93;;
9938;SDS011;5008;50.656;7.188;2023-12-20T10:59:36;5.50;;;2.40;;
9938;SDS011;5008;50.656;7.188;2023-12-20T11:02:05;6.60;;;2.57;;
9938;SDS011;5008;50.656;7.188;2023-12-20T11:04:35;5.43;;;2.53;;
9938;SDS011;5008;50.656;7.188;2023-12-20T11:07:08;2.73;;;2.30;;
9938;SDS011;5008;50.656;7.188;2023-12-20T11:09:45;4.90;;;2.30;;
9938;SDS011;5008;50.656;7.188;2023-12-20T11:12:21;6.23;;;2.60;;
9938;SDS011;5008;50.656;7.188;2023-12-20T11:14:52;6.27;;;2.47;;
9938;SDS011;5008;50.656;7.188;2023-12-20T11:17:23;6.40;;;2.33;;
9938;SDS011;5008;50.656;7.188;2023-12-20T11:20:07;6.93;;;2.00;;
9938;SDS011;5008;50.656;7.188;2023-12-20T11:22:37;4.77;;;2.60;;
9938;SDS011;5008;50.656;7.188;2023-12-20T11:25:07;4.20;;;2.27;;
9938;SDS011;5008;50.656;7.188;2023-12-20T11:27:40;5.73;;;2.27;;
9938;SDS011;5008;50.656;7.188;2023-12-20T11:30:08;6.67;;;2.43;;
9938;SDS011;5008;50.656;7.188;2023-12-20T11:32:36;3.97;;;2.07;;
9938;SDS011;5008;50.656;7.188;2023-12-20T11:37:45;5.80;;;2.37;;
9938;SDS011;5008;50.656;7.188;2023-12-20T11:40:14;6.83;;;2.17;;
9938;SDS011;5008;50.656;7.188;2023-12-20T11:42:42;8.60;;;2.70;;
9938;SDS011;5008;50.656;7.188;2023-12-20T11:45:11;4.43;;;2.53;;
9938;SDS011;5008;50.656;7.188;2023-12-20T11:47:41;6.23;;;2.40;;
9938;SDS011;5008;50.656;7.188;2023-12-20T11:50:08;5.70;;;2.40;;
9938;SDS011;5008;50.656;7.188;2023-12-20T11:52:35;2.87;;;2.07;;
9938;SDS011;5008;50.656;7.188;2023-12-20T11:55:02;4.30;;;2.10;;
9938;SDS011;5008;50.656;7.188;2023-12-20T11:57:30;4.43;;;2.07;;
9938;SDS011;5008;50.656;7.188;2023-12-20T11:59:56;3.40;;;2.43;;
9938;SDS011;5008;50.656;7.188;2023-12-20T12:02:23;4.53;;;2.30;;
9938;SDS011;5008;50.656;7.188;2023-12-20T12:04:51;5.87;;;2.40;;
9938;SDS011;5008;50.656;7.188;2023-12-20T12:07:18;5.33;;;2.63;;
9938;SDS011;5008;50.656;7.188;2023-12-20T12:09:45;5.80;;;2.50;;
9938;SDS011;5008;50.656;7.188;2023-12-20T12:12:12;5.27;;;2.37;;
9938;SDS011;5008;50.656;7.188;2023-12-20T12:14:39;4.57;;;2.70;;
9938;SDS011;5008;50.656;7.188;2023-12-20T12:17:09;4.40;;;3.00;;
9938;SDS011;5008;50.656;7.188;2023-12-20T12:19:36;5.57;;;2.40;;
9938;SDS011;5008;50.656;7.188;2023-12-20T12:22:05;5.40;;;2.43;;
9938;SDS011;5008;50.656;7.188;2023-12-20T12:24:35;4.80;;;2.80;;
9938;SDS011;5008;50.656;7.188;2023-12-20T12:27:02;5.43;;;2.30;;
9938;SDS011;5008;50.656;7.188;2023-12-20T12:29:30;4.43;;;2.20;;
9938;SDS011;5008;50.656;7.188;2023-12-20T12:31:56;3.50;;;2.13;;
9938;SDS011;5008;50.656;7.188;2023-12-20T12:34:23;4.53;;;2.30;;
9938;SDS011;5008;50.656;7.188;2023-12-20T12:36:51;4.63;;;2.47;;
9938;SDS011;5008;50.656;7.188;2023-12-20T12:39:20;4.60;;;2.33;;
9938;SDS011;5008;50.656;7.188;2023-12-20T12:41:47;4.13;;;2.27;;
9938;SDS011;5008;50.656;7.188;2023-12-20T12:44:14;3.37;;;2.50;;
9938;SDS011;5008;50.656;7.188;2023-12-20T12:46:40;7.23;;;2.10;;
9938;SDS011;5008;50.656;7.188;2023-12-20T12:49:07;4.20;;;2.40;;
9938;SDS011;5008;50.656;7.188;2023-12-20T12:51:34;4.07;;;2.17;;
9938;SDS011;5008;50.656;7.188;2023-12-20T12:54:01;5.33;;;2.87;;
9938;SDS011;5008;50.656;7.188;2023-12-20T12:56:29;3.60;;;2.00;;
9938;SDS011;5008;50.656;7.188;2023-12-20T12:58:56;5.03;;;2.50;;
9938;SDS011;5008;50.656;7.188;2023-12-20T13:01:23;5.53;;;2.50;;
9938;SDS011;5008;50.656;7.188;2023-12-20T13:03:50;5.00;;;2.87;;
9938;SDS011;5008;50.656;7.188;2023-12-20T13:06:17;5.70;;;2.50;;
9938;SDS011;5008;50.656;7.188;2023-12-20T13:08:44;4.20;;;2.27;;
9938;SDS011;5008;50.656;7.188;2023-12-20T13:11:11;4.97;;;2.50;;
9938;SDS011;5008;50.656;7.188;2023-12-20T13:13:39;5.27;;;2.63;;
9938;SDS011;5008;50.656;7.188;2023-12-20T13:16:06;5.83;;;2.47;;
9938;SDS011;5008;50.656;7.188;2023-12-20T13:18:33;7.17;;;2.70;;
9938;SDS011;5008;50.656;7.188;2023-12-20T13:21:00;7.03;;;2.63;;
9938;SDS011;5008;50.656;7.188;2023-12-20T13:23:27;3.90;;;2.17;;
9938;SDS011;5008;50.656;7.188;2023-12-20T13:25:54;4.57;;;2.67;;
9938;SDS011;5008;50.656;7.188;2023-12-20T13:28:21;6.00;;;2.67;;
9938;SDS011;5008;50.656;7.188;2023-12-20T13:30:49;5.63;;;2.30;;
9938;SDS011;5008;50.656;7.188;2023-12-20T13:33:16;7.00;;;2.63;;
9938;SDS011;5008;50.656;7.188;2023-12-20T13:35:42;5.53;;;2.63;;
9938;SDS011;5008;50.656;7.188;2023-12-20T13:38:09;6.53;;;2.57;;
9938;SDS011;5008;50.656;7.188;2023-12-20T13:40:38;5.73;;;2.37;;
9938;SDS011;5008;50.656;7.188;2023-12-20T13:43:05;5.90;;;2.70;;
9938;SDS011;5008;50.656;7.188;2023-12-20T13:45:32;4.90;;;2.10;;
9938;SDS011;5008;50.656;7.188;2023-12-20T13:48:00;6.20;;;2.60;;
9938;SDS011;5008;50.656;7.188;2023-12-20T13:50:27;5.17;;;2.53;;
9938;SDS011;5008;50.656;7.188;2023-12-20T13:52:54;2.97;;;2.20;;
9938;SDS011;5008;50.656;7.188;2023-12-20T13:55:20;9.37;;;2.50;;
9938;SDS011;5008;50.656;7.188;2023-12-20T13:57:50;4.90;;;2.70;;
9938;SDS011;5008;50.656;7.188;2023-12-20T14:00:17;5.73;;;2.77;;
9938;SDS011;5008;50.656;7.188;2023-12-20T14:02:44;8.47;;;2.70;;
9938;SDS011;5008;50.656;7.188;2023-12-20T14:05:12;5.13;;;2.43;;
9938;SDS011;5008;50.656;7.188;2023-12-20T14:07:42;5.07;;;2.30;;
9938;SDS011;5008;50.656;7.188;2023-12-20T14:10:10;3.63;;;2.00;;
9938;SDS011;5008;50.656;7.188;2023-12-20T14:12:37;3.20;;;2.13;;
9938;SDS011;5008;50.656;7.188;2023-12-20T14:15:04;4.23;;;2.50;;
9938;SDS011;5008;50.656;7.188;2023-12-20T14:17:36;4.37;;;2.50;;
9938;SDS011;5008;50.656;7.188;2023-12-20T14:20:03;5.97;;;2.53;;
9938;SDS011;5008;50.656;7.188;2023-12-20T14:22:37;4.80;;;2.60;;
9938;SDS011;5008;50.656;7.188;2023-12-20T14:25:10;4.83;;;2.50;;
9938;SDS011;5008;50.656;7.188;2023-12-20T14:27:38;3.77;;;2.20;;
9938;SDS011;5008;50.656;7.188;2023-12-20T14:30:06;3.70;;;2.13;;
9938;SDS011;5008;50.656;7.188;2023-12-20T14:32:34;2.10;;;1.53;;
9938;SDS011;5008;50.656;7.188;2023-12-20T14:35:03;1.83;;;1.43;;
9938;SDS011;5008;50.656;7.188;2023-12-20T14:37:30;1.73;;;1.30;;
9938;SDS011;5008;50.656;7.188;2023-12-20T14:39:59;2.23;;;1.53;;
9938;SDS011;5008;50.656;7.188;2023-12-20T14:42:25;2.43;;;1.10;;
9938;SDS011;5008;50.656;7.188;2023-12-20T14:44:52;2.23;;;1.20;;
9938;SDS011;5008;50.656;7.188;2023-12-20T14:47:19;2.90;;;1.30;;
9938;SDS011;5008;50.656;7.188;2023-12-20T14:49:46;1.93;;;1.10;;
9938;SDS011;5008;50.656;7.188;2023-12-20T14:52:13;1.37;;;0.83;;
9938;SDS011;5008;50.656;7.188;2023-12-20T14:54:40;1.30;;;1.07;;
9938;SDS011;5008;50.656;7.188;2023-12-20T14:57:10;1.43;;;0.90;;
9938;SDS011;5008;50.656;7.188;2023-12-20T14:59:37;2.87;;;1.20;;
9938;SDS011;5008;50.656;7.188;2023-12-20T15:02:04;1.40;;;1.27;;
9938;SDS011;5008;50.656;7.188;2023-12-20T15:04:31;0.97;;;0.97;;
9938;SDS011;5008;50.656;7.188;2023-12-20T15:06:58;2.17;;;1.00;;
9938;SDS011;5008;50.656;7.188;2023-12-20T15:09:26;1.50;;;1.20;;
9938;SDS011;5008;50.656;7.188;2023-12-20T15:11:54;0.70;;;0.70;;
9938;SDS011;5008;50.656;7.188;2023-12-20T15:14:22;2.00;;;1.13;;
9938;SDS011;5008;50.656;7.188;2023-12-20T15:16:49;2.53;;;1.37;;
9938;SDS011;5008;50.656;7.188;2023-12-20T15:19:16;1.87;;;0.93;;
9938;SDS011;5008;50.656;7.188;2023-12-20T15:21:43;1.70;;;1.60;;
9938;SDS011;5008;50.656;7.188;2023-12-20T15:24:10;1.80;;;1.40;;
9938;SDS011;5008;50.656;7.188;2023-12-20T15:26:40;1.87;;;1.50;;
9938;SDS011;5008;50.656;7.188;2023-12-20T15:29:07;1.70;;;1.40;;
9938;SDS011;5008;50.656;7.188;2023-12-20T15:31:36;2.70;;;1.90;;
9938;SDS011;5008;50.656;7.188;2023-12-20T15:34:07;2.53;;;1.33;;
9938;SDS011;5008;50.656;7.188;2023-12-20T15:36:34;3.43;;;1.40;;
9938;SDS011;5008;50.656;7.188;2023-12-20T15:39:01;3.20;;;1.47;;
9938;SDS011;5008;50.656;7.188;2023-12-20T15:41:29;3.43;;;1.77;;
9938;SDS011;5008;50.656;7.188;2023-12-20T15:43:56;3.87;;;1.97;;
9938;SDS011;5008;50.656;7.188;2023-12-20T15:46:22;2.20;;;1.67;;
9938;SDS011;5008;50.656;7.188;2023-12-20T15:48:51;1.97;;;1.80;;
9938;SDS011;5008;50.656;7.188;2023-12-20T15:51:19;3.77;;;1.70;;
9938;SDS011;5008;50.656;7.188;2023-12-20T15:53:46;3.80;;;1.93;;
9938;SDS011;5008;50.656;7.188;2023-12-20T15:56:12;3.43;;;1.93;;
9938;SDS011;5008;50.656;7.188;2023-12-20T15:58:39;3.50;;;1.90;;
9938;SDS011;5008;50.656;7.188;2023-12-20T16:01:06;2.60;;;1.90;;
9938;SDS011;5008;50.656;7.188;2023-12-20T16:03:33;2.70;;;2.00;;
9938;SDS011;5008;50.656;7.188;2023-12-20T16:06:02;4.37;;;2.07;;
9938;SDS011;5008;50.656;7.188;2023-12-20T16:08:29;3.23;;;1.80;;
9938;SDS011;5008;50.656;7.188;2023-12-20T16:10:56;4.10;;;1.93;;
9938;SDS011;5008;50.656;7.188;2023-12-20T16:13:24;4.90;;;1.90;;
9938;SDS011;5008;50.656;7.188;2023-12-20T16:15:51;5.73;;;1.77;;
9938;SDS011;5008;50.656;7.188;2023-12-20T16:18:19;4.53;;;2.40;;
9938;SDS011;5008;50.656;7.188;2023-12-20T16:20:46;3.97;;;1.90;;
9938;SDS011;5008;50.656;7.188;2023-12-20T16:23:14;3.87;;;2.03;;
9938;SDS011;5008;50.656;7.188;2023-12-20T16:25:42;5.30;;;2.10;;
9938;SDS011;5008;50.656;7.188;2023-12-20T16:28:09;3.57;;;1.90;;
9938;SDS011;5008;50.656;7.188;2023-12-20T16:30:35;3.20;;;1.70;;
9938;SDS011;5008;50.656;7.188;2023-12-20T16:33:02;2.60;;;2.10;;
9938;SDS011;5008;50.656;7.188;2023-12-20T16:35:29;3.30;;;1.80;;
9938;SDS011;5008;50.656;7.188;2023-12-20T16:37:56;3.73;;;2.03;;
9938;SDS011;5008;50.656;7.188;2023-12-20T16:40:25;3.87;;;1.40;;
9938;SDS011;5008;50.656;7.188;2023-12-20T16:42:52;2.37;;;1.60;;
9938;SDS011;5008;50.656;7.188;2023-12-20T16:45:20;2.87;;;1.30;;
9938;SDS011;5008;50.656;7.188;2023-12-20T16:47:48;2.43;;;1.63;;
9938;SDS011;5008;50.656;7.188;2023-12-20T16:50:14;1.20;;;1.13;;
9938;SDS011;5008;50.656;7.188;2023-12-20T16:52:41;2.20;;;1.40;;
9938;SDS011;5008;50.656;7.188;2023-12-20T16:55:09;2.70;;;1.40;;
9938;SDS011;5008;50.656;7.188;2023-12-20T16:57:39;2.43;;;1.60;;
9938;SDS011;5008;50.656;7.188;2023-12-20T17:00:06;2.73;;;1.40;;
9938;SDS011;5008;50.656;7.188;2023-12-20T17:02:33;2.33;;;1.30;;
9938;SDS011;5008;50.656;7.188;2023-12-20T17:05:00;1.90;;;1.20;;
9938;SDS011;5008;50.656;7.188;2023-12-20T17:07:27;3.13;;;1.67;;
9938;SDS011;5008;50.656;7.188;2023-12-20T17:09:54;6.37;;;5.37;;
9938;SDS011;5008;50.656;7.188;2023-12-20T17:12:21;3.37;;;3.07;;
9938;SDS011;5008;50.656;7.188;2023-12-20T17:14:51;3.33;;;1.70;;
9938;SDS011;5008;50.656;7.188;2023-12-20T17:17:20;3.47;;;3.10;;
9938;SDS011;5008;50.656;7.188;2023-12-20T17:19:47;4.70;;;4.30;;
9938;SDS011;5008;50.656;7.188;2023-12-20T17:22:13;5.03;;;4.63;;
9938;SDS011;5008;50.656;7.188;2023-12-20T17:24:40;4.20;;;3.80;;
9938;SDS011;5008;50.656;7.188;2023-12-20T17:27:07;5.10;;;4.03;;
9938;SDS011;5008;50.656;7.188;2023-12-20T17:29:33;5.43;;;4.70;;
9938;SDS011;5008;50.656;7.188;2023-12-20T17:32:02;5.70;;;4.13;;
9938;SDS011;5008;50.656;7.188;2023-12-20T17:34:29;4.93;;;3.43;;
9938;SDS011;5008;50.656;7.188;2023-12-20T17:36:56;2.83;;;2.40;;
9938;SDS011;5008;50.656;7.188;2023-12-20T17:39:23;3.77;;;2.67;;
9938;SDS011;5008;50.656;7.188;2023-12-20T17:41:50;3.07;;;2.73;;
9938;SDS011;5008;50.656;7.188;2023-12-20T17:44:20;4.40;;;2.93;;
9938;SDS011;5008;50.656;7.188;2023-12-20T17:46:47;2.80;;;2.20;;
9938;SDS011;5008;50.656;7.188;2023-12-20T17:49:15;3.53;;;2.60;;
9938;SDS011;5008;50.656;7.188;2023-12-20T17:51:43;3.13;;;2.67;;
9938;SDS011;5008;50.656;7.188;2023-12-20T17:54:12;4.50;;;3.37;;
9938;SDS011;5008;50.656;7.188;2023-12-20T17:56:38;5.67;;;4.37;;
9938;SDS011;5008;50.656;7.188;2023-12-20T17:59:05;5.17;;;4.63;;
9938;SDS011;5008;50.656;7.188;2023-12-20T18:01:32;4.97;;;4.47;;
9938;SDS011;5008;50.656;7.188;2023-12-20T18:03:59;5.93;;;4.30;;
9938;SDS011;5008;50.656;7.188;2023-12-20T18:06:27;5.17;;;4.30;;
9938;SDS011;5008;50.656;7.188;2023-12-20T18:08:54;7.60;;;5.03;;
9938;SDS011;5008;50.656;7.188;2023-12-20T18:11:21;7.50;;;6.40;;
9938;SDS011;5008;50.656;7.188;2023-12-20T18:13:48;7.90;;;7.20;;
9938;SDS011;5008;50.656;7.188;2023-12-20T18:16:14;8.00;;;5.53;;
9938;SDS011;5008;50.656;7.188;2023-12-20T18:18:42;4.83;;;4.33;;
9938;SDS011;5008;50.656;7.188;2023-12-20T18:21:09;5.47;;;4.60;;
9938;SDS011;5008;50.656;7.188;2023-12-20T18:23:45;6.70;;;4.47;;
9938;SDS011;5008;50.656;7.188;2023-12-20T18:26:11;4.47;;;3.90;;
9938;SDS011;5008;50.656;7.188;2023-12-20T18:28:38;7.90;;;5.10;;
9938;SDS011;5008;50.656;7.188;2023-12-20T18:31:05;6.57;;;5.90;;
9938;SDS011;5008;50.656;7.188;2023-12-20T18:33:32;6.80;;;3.93;;
9938;SDS011;5008;50.656;7.188;2023-12-20T18:36:00;7.23;;;4.37;;
9938;SDS011;5008;50.656;7.188;2023-12-20T18:38:27;8.23;;;5.53;;
9938;SDS011;5008;50.656;7.188;2023-12-20T18:40:58;8.90;;;7.50;;
9938;SDS011;5008;50.656;7.188;2023-12-20T18:43:25;10.50;;;6.23;;
9938;SDS011;5008;50.656;7.188;2023-12-20T18:45:52;6.40;;;4.80;;
9938;SDS011;5008;50.656;7.188;2023-12-20T18:48:19;7.07;;;5.67;;
9938;SDS011;5008;50.656;7.188;2023-12-20T18:50:46;5.77;;;4.30;;
9938;SDS011;5008;50.656;7.188;2023-12-20T18:53:13;8.00;;;5.97;;
9938;SDS011;5008;50.656;7.188;2023-12-20T18:55:41;6.80;;;5.77;;
9938;SDS011;5008;50.656;7.188;2023-12-20T18:58:09;6.30;;;5.00;;
9938;SDS011;5008;50.656;7.188;2023-12-20T19:00:38;5.30;;;4.37;;
9938;SDS011;5008;50.656;7.188;2023-12-20T19:03:05;7.33;;;5.13;;
9938;SDS011;5008;50.656;7.188;2023-12-20T19:05:32;6.07;;;5.37;;
9938;SDS011;5008;50.656;7.188;2023-12-20T19:07:59;8.43;;;5.57;;
9938;SDS011;5008;50.656;7.188;2023-12-20T19:10:26;6.17;;;4.23;;
9938;SDS011;5008;50.656;7.188;2023-12-20T19:12:53;8.30;;;5.20;;
9938;SDS011;5008;50.656;7.188;2023-12-20T19:15:21;8.87;;;5.90;;
9938;SDS011;5008;50.656;7.188;2023-12-20T19:17:48;10.27;;;6.90;;
9938;SDS011;5008;50.656;7.188;2023-12-20T19:20:14;8.77;;;6.23;;
9938;SDS011;5008;50.656;7.188;2023-12-20T19:22:41;7.60;;;4.53;;
9938;SDS011;5008;50.656;7.188;2023-12-20T19:25:08;6.33;;;3.73;;
9938;SDS011;5008;50.656;7.188;2023-12-20T19:27:35;5.30;;;4.03;;
9938;SDS011;5008;50.656;7.188;2023-12-20T19:30:02;5.10;;;4.07;;
9938;SDS011;5008;50.656;7.188;2023-12-20T19:32:31;5.93;;;4.50;;
9938;SDS011;5008;50.656;7.188;2023-12-20T19:34:58;6.43;;;5.17;;
9938;SDS011;5008;50.656;7.188;2023-12-20T19:37:25;7.20;;;5.60;;
9938;SDS011;5008;50.656;7.188;2023-12-20T19:39:52;7.90;;;5.87;;
9938;SDS011;5008;50.656;7.188;2023-12-20T19:42:18;6.23;;;5.00;;
9938;SDS011;5008;50.656;7.188;2023-12-20T19:44:45;5.13;;;3.57;;
9938;SDS011;5008;50.656;7.188;2023-12-20T19:47:12;7.67;;;6.37;;
9938;SDS011;5008;50.656;7.188;2023-12-20T19:49:40;6.60;;;5.53;;
9938;SDS011;5008;50.656;7.188;2023-12-20T19:52:07;7.90;;;5.13;;
9938;SDS011;5008;50.656;7.188;2023-12-20T19:54:34;6.33;;;4.40;;
9938;SDS011;5008;50.656;7.188;2023-12-20T19:57:01;4.33;;;3.70;;
9938;SDS011;5008;50.656;7.188;2023-12-20T19:59:28;4.03;;;3.57;;
9938;SDS011;5008;50.656;7.188;2023-12-20T20:01:54;7.90;;;6.67;;
9938;SDS011;5008;50.656;7.188;2023-12-20T20:04:21;4.43;;;3.20;;
9938;SDS011;5008;50.656;7.188;2023-12-20T20:06:49;4.47;;;3.50;;
9938;SDS011;5008;50.656;7.188;2023-12-20T20:09:17;6.03;;;4.20;;
9938;SDS011;5008;50.656;7.188;2023-12-20T20:11:44;5.07;;;2.60;;
9938;SDS011;5008;50.656;7.188;2023-12-20T20:14:11;2.77;;;2.50;;
9938;SDS011;5008;50.656;7.188;2023-12-20T20:16:37;7.57;;;5.10;;
9938;SDS011;5008;50.656;7.188;2023-12-20T20:19:04;4.30;;;3.10;;
9938;SDS011;5008;50.656;7.188;2023-12-20T20:21:31;4.10;;;2.70;;
9938;SDS011;5008;50.656;7.188;2023-12-20T20:23:59;3.80;;;1.50;;